createdAt,value
2023-02-26T00:01:34.177Z,100996.69
2023-02-26T00:04:03.672Z,101007.88
2023-02-26T00:06:34.600Z,101007.09
2023-02-26T00:09:03.513Z,101008.75
2023-02-26T00:11:32.084Z,101008.63
2023-02-26T00:14:00.524Z,101014.41
2023-02-26T00:16:32.702Z,101018.19
2023-02-26T00:19:02.803Z,101024.81
2023-02-26T00:21:32.244Z,101024.31
2023-02-26T00:24:00.620Z,101031.31
2023-02-26T00:26:30.087Z,101037.22
2023-02-26T00:28:59.006Z,101049.84
2023-02-26T00:31:27.497Z,101048.34
2023-02-26T00:33:59.063Z,101051.06
2023-02-26T00:36:38.853Z,101060.22
2023-02-26T00:39:24.101Z,101057.31
2023-02-26T00:41:52.404Z,101057.31
2023-02-26T00:44:20.933Z,101053.66
2023-02-26T00:46:55.681Z,101053.84
2023-02-26T00:49:33.216Z,101059.69
2023-02-26T00:52:04.349Z,101066.31
2023-02-26T00:54:32.604Z,101069.63
2023-02-26T00:57:00.798Z,101075.88
2023-02-26T00:59:28.733Z,101074.47
2023-02-26T01:01:56.644Z,101072.44
2023-02-26T01:04:26.949Z,101075.31
2023-02-26T01:06:57.105Z,101079.38
2023-02-26T01:09:28.167Z,101078.16
2023-02-26T01:11:58.202Z,101075.19
2023-02-26T01:14:26.740Z,101081.53
2023-02-26T01:17:03.664Z,101084.34
2023-02-26T01:19:42.512Z,101085.78
2023-02-26T01:22:17.085Z,101096.44
2023-02-26T01:24:48.496Z,101090.66
2023-02-26T01:27:16.749Z,101091.66
2023-02-26T01:29:45.391Z,101096.44
2023-02-26T01:32:21.060Z,101094.19
2023-02-26T01:35:01.036Z,101098.16
2023-02-26T01:37:34.713Z,101104.03
2023-02-26T01:40:27.695Z,101102.66
2023-02-26T01:43:00.398Z,101102.66
2023-02-26T01:45:35.100Z,101102.34
2023-02-26T01:48:06.965Z,101101.78
2023-02-26T01:50:37.856Z,101108.13
2023-02-26T01:53:20.801Z,101114.81
2023-02-26T01:55:52.601Z,101112.09
2023-02-26T01:58:23.469Z,101116.03
2023-02-26T02:00:52.139Z,101120.41
2023-02-26T02:03:22.059Z,101122.41
2023-02-26T02:05:56.189Z,101123.28
2023-02-26T02:08:25.542Z,101130.97
2023-02-26T02:10:53.995Z,101131.16
2023-02-26T02:13:31.905Z,101135.72
2023-02-26T02:16:11.658Z,101140.13
2023-02-26T02:18:47.158Z,101142.19
2023-02-26T02:21:40.047Z,101140.25
2023-02-26T02:24:14.410Z,101146.69
2023-02-26T02:27:04.478Z,101152.88
2023-02-26T02:30:18.392Z,101162.50
2023-02-26T02:32:52.477Z,101165.19
2023-02-26T02:35:25.644Z,101169.50
2023-02-26T02:37:57.719Z,101164.28
2023-02-26T02:40:29.601Z,101164.03
2023-02-26T02:43:03.221Z,101169.75
2023-02-26T02:45:37.454Z,101173.06
2023-02-26T02:48:11.856Z,101178.69
2023-02-26T02:50:45.727Z,101179.38
2023-02-26T02:53:18.917Z,101181.28
2023-02-26T02:55:49.728Z,101190.59
2023-02-26T02:58:22.390Z,101192.53
2023-02-26T03:00:52.516Z,101187.56
2023-02-26T03:03:29.057Z,101199.84
2023-02-26T03:05:57.065Z,101194.59
2023-02-26T03:08:28.967Z,101189.25
2023-02-26T03:10:57.965Z,101199.88
2023-02-26T03:13:27.256Z,101203.97
2023-02-26T03:16:19.503Z,101213.09
2023-02-26T03:18:59.166Z,101215.31
2023-02-26T03:21:35.242Z,101216.88
2023-02-26T03:24:11.205Z,101223.47
2023-02-26T03:26:44.820Z,101225.81
2023-02-26T03:29:20.943Z,101225.16
2023-02-26T03:31:56.315Z,101242.88
2023-02-26T03:34:31.594Z,101232.75
2023-02-26T03:37:06.842Z,101228.63
2023-02-26T03:39:41.406Z,101235.72
2023-02-26T03:42:16.351Z,101252.28
2023-02-26T03:44:56.953Z,101253.03
2023-02-26T03:47:26.561Z,101264.72
2023-02-26T03:50:02.787Z,101262.84
2023-02-26T03:52:40.014Z,101265.81
2023-02-26T03:55:19.595Z,101265.94
2023-02-26T03:57:58.307Z,101274.72
2023-02-26T04:00:43.303Z,101280.84
2023-02-26T04:03:15.593Z,101288.84
2023-02-26T04:05:49.785Z,101285.16
2023-02-26T04:08:18.036Z,101285.34
2023-02-26T04:10:53.488Z,101295.13
2023-02-26T04:13:21.647Z,101290.28
2023-02-26T04:15:50.602Z,101294.09
2023-02-26T04:18:18.455Z,101310.72
2023-02-26T04:20:47.691Z,101304.44
2023-02-26T04:23:15.604Z,101312.81
2023-02-26T04:25:43.756Z,101317.38
2023-02-26T04:28:13.361Z,101319.81
2023-02-26T04:30:42.215Z,101325.09
2023-02-26T04:33:13.569Z,101327.78
2023-02-26T04:35:41.483Z,101324.50
2023-02-26T04:38:12.032Z,101316.72
2023-02-26T04:40:40.189Z,101315.53
2023-02-26T04:43:11.837Z,101333.69
2023-02-26T04:45:49.534Z,101341.97
2023-02-26T04:48:18.644Z,101341.94
2023-02-26T04:50:47.014Z,101344.00
2023-02-26T04:53:16.510Z,101347.97
2023-02-26T04:55:44.457Z,101355.88
2023-02-26T04:58:12.449Z,101361.75
2023-02-26T05:00:40.687Z,101367.84
2023-02-26T05:03:09.993Z,101362.66
2023-02-26T05:05:37.968Z,101361.59
2023-02-26T05:08:05.965Z,101374.84
2023-02-26T05:10:36.063Z,101371.16
2023-02-26T05:13:05.467Z,101378.34
2023-02-26T05:15:33.747Z,101382.06
2023-02-26T05:18:01.777Z,101380.94
2023-02-26T05:20:30.603Z,101384.63
2023-02-26T05:23:00.442Z,101383.13
2023-02-26T05:25:28.383Z,101396.31
2023-02-26T05:27:57.903Z,101393.22
2023-02-26T05:30:25.877Z,101399.00
2023-02-26T05:32:54.783Z,101406.09
2023-02-26T05:35:22.658Z,101407.97
2023-02-26T05:37:50.533Z,101400.13
2023-02-26T05:40:18.717Z,101416.03
2023-02-26T05:42:46.522Z,101414.84
2023-02-26T05:45:15.868Z,101419.97
2023-02-26T05:47:43.788Z,101435.88
2023-02-26T05:50:13.017Z,101425.75
2023-02-26T05:52:40.955Z,101443.78
2023-02-26T05:55:10.747Z,101437.16
2023-02-26T05:57:38.688Z,101440.44
2023-02-26T06:00:08.679Z,101446.84
2023-02-26T06:02:43.750Z,101438.41
2023-02-26T06:05:11.711Z,101452.19
2023-02-26T06:07:39.879Z,101451.50
2023-02-26T06:10:09.675Z,101454.16
2023-02-26T06:12:37.873Z,101462.25
2023-02-26T06:15:07.706Z,101457.88
2023-02-26T06:17:35.792Z,101463.38
2023-02-26T06:20:05.721Z,101471.56
2023-02-26T06:22:33.990Z,101474.69
2023-02-26T06:25:01.952Z,101480.56
2023-02-26T06:27:29.862Z,101481.38
2023-02-26T06:29:57.756Z,101487.16
2023-02-26T06:32:28.343Z,101486.22
2023-02-26T06:34:57.467Z,101499.78
2023-02-26T06:37:26.778Z,101495.19
2023-02-26T06:39:54.685Z,101501.94
2023-02-26T06:42:23.003Z,101506.59
2023-02-26T06:44:50.945Z,101517.56
2023-02-26T06:47:18.844Z,101506.69
2023-02-26T06:49:46.871Z,101524.28
2023-02-26T06:52:14.810Z,101517.63
2023-02-26T06:54:44.078Z,101526.38
2023-02-26T06:57:12.035Z,101527.50
2023-02-26T06:59:39.976Z,101525.34
2023-02-26T07:02:08.170Z,101533.25
2023-02-26T07:04:36.108Z,101547.75
2023-02-26T07:07:03.997Z,101542.56
2023-02-26T07:09:31.954Z,101543.97
2023-02-26T07:12:01.203Z,101541.06
2023-02-26T07:14:29.086Z,101545.63
2023-02-26T07:16:57.029Z,101554.31
2023-02-26T07:19:24.886Z,101559.94
2023-02-26T07:21:55.006Z,101566.53
2023-02-26T07:24:22.978Z,101581.84
2023-02-26T07:26:50.903Z,101584.59
2023-02-26T07:29:20.162Z,101580.63
2023-02-26T07:31:48.199Z,101584.19
2023-02-26T07:34:16.143Z,101587.91
2023-02-26T07:36:44.017Z,101590.00
2023-02-26T07:39:12.594Z,101596.63
2023-02-26T07:41:40.803Z,101608.63
2023-02-26T07:44:15.651Z,101612.03
2023-02-26T07:46:44.931Z,101602.38
2023-02-26T07:49:12.869Z,101606.22
2023-02-26T07:51:40.941Z,101615.19
2023-02-26T07:54:08.822Z,101601.75
2023-02-26T07:56:36.781Z,101602.06
2023-02-26T07:59:04.694Z,101595.19
2023-02-26T08:01:32.646Z,101607.00
2023-02-26T08:04:01.996Z,101604.84
2023-02-26T08:06:29.993Z,101611.16
2023-02-26T08:08:57.888Z,101600.31
2023-02-26T08:11:25.816Z,101611.47
2023-02-26T08:13:53.711Z,101621.19
2023-02-26T08:16:21.702Z,101623.56
2023-02-26T08:18:49.640Z,101631.16
2023-02-26T08:21:18.936Z,101634.34
2023-02-26T08:23:46.981Z,101644.22
2023-02-26T08:26:14.876Z,101651.25
2023-02-26T08:28:42.877Z,101645.44
2023-02-26T08:31:11.230Z,101648.88
2023-02-26T08:33:39.268Z,101660.16
2023-02-26T08:36:08.602Z,101657.44
2023-02-26T08:38:37.947Z,101662.78
2023-02-26T08:41:06.035Z,101661.84
2023-02-26T08:43:33.933Z,101663.44
2023-02-26T08:46:01.826Z,101659.66
2023-02-26T08:48:29.805Z,101673.81
2023-02-26T08:50:57.727Z,101664.03
2023-02-26T08:53:25.833Z,101654.38
2023-02-26T08:55:55.217Z,101661.78
2023-02-26T08:58:23.580Z,101665.94
2023-02-26T09:00:51.587Z,101672.72
2023-02-26T09:03:19.503Z,101670.50
2023-02-26T09:05:47.359Z,101674.16
2023-02-26T09:08:16.110Z,101677.53
2023-02-26T09:10:44.470Z,101678.75
2023-02-26T09:13:14.039Z,101675.19
2023-02-26T09:15:42.429Z,101668.66
2023-02-26T09:18:15.541Z,101684.31
2023-02-26T09:20:43.670Z,101682.13
2023-02-26T09:23:12.104Z,101687.16
2023-02-26T09:25:40.546Z,101683.00
2023-02-26T09:28:08.513Z,101700.16
2023-02-26T09:30:37.782Z,101705.31
2023-02-26T09:33:06.217Z,101712.72
2023-02-26T09:35:34.289Z,101716.97
2023-02-26T09:38:03.906Z,101726.81
2023-02-26T09:40:42.231Z,101723.84
2023-02-26T09:43:36.409Z,101739.44
2023-02-26T09:46:12.146Z,101737.00
2023-02-26T09:48:41.072Z,101749.25
2023-02-26T09:51:18.049Z,101743.09
2023-02-26T09:53:47.314Z,101756.34
2023-02-26T09:56:18.054Z,101752.69
2023-02-26T09:58:46.923Z,101758.78
2023-02-26T10:01:24.511Z,101743.81
2023-02-26T10:04:04.610Z,101761.19
2023-02-26T10:06:35.991Z,101741.50
2023-02-26T10:09:25.944Z,101761.31
2023-02-26T10:12:01.633Z,101770.34
2023-02-26T10:14:35.425Z,101763.13
2023-02-26T10:17:14.547Z,101773.63
2023-02-26T10:19:47.838Z,101767.41
2023-02-26T10:22:17.753Z,101782.59
2023-02-26T10:24:49.940Z,101780.28
2023-02-26T10:27:23.613Z,101776.53
2023-02-26T10:29:58.846Z,101792.59
2023-02-26T10:32:37.027Z,101785.84
2023-02-26T10:35:10.108Z,101796.22
2023-02-26T10:37:48.501Z,101789.91
2023-02-26T10:40:20.281Z,101792.66
2023-02-26T10:42:53.103Z,101784.59
2023-02-26T10:45:31.575Z,101802.94
2023-02-26T10:48:11.950Z,101807.56
2023-02-26T10:50:44.080Z,101792.84
2023-02-26T10:53:13.604Z,101812.66
2023-02-26T10:55:45.749Z,101798.06
2023-02-26T10:58:15.347Z,101808.41
2023-02-26T11:00:46.503Z,101799.69
2023-02-26T11:03:20.259Z,101802.09
2023-02-26T11:05:49.219Z,101821.81
2023-02-26T11:08:20.442Z,101812.63
2023-02-26T11:10:52.702Z,101819.16
2023-02-26T11:13:22.787Z,101813.91
2023-02-26T11:15:53.152Z,101821.97
2023-02-26T11:18:26.944Z,101817.97
2023-02-26T11:20:57.826Z,101809.91
2023-02-26T11:23:28.808Z,101824.81
2023-02-26T11:26:02.672Z,101830.59
2023-02-26T11:28:33.573Z,101822.72
2023-02-26T11:31:06.565Z,101835.47
2023-02-26T11:33:39.556Z,101833.47
2023-02-26T11:36:12.339Z,101836.38
2023-02-26T11:38:40.438Z,101848.22
2023-02-26T11:41:09.020Z,101851.69
2023-02-26T11:43:44.306Z,101856.16
2023-02-26T11:46:14.662Z,101857.22
2023-02-26T11:48:47.675Z,101863.41
2023-02-26T11:51:19.905Z,101859.47
2023-02-26T11:53:51.853Z,101865.06
2023-02-26T11:56:27.362Z,101865.59
2023-02-26T11:58:56.458Z,101854.25
2023-02-26T12:01:29.519Z,101846.06
2023-02-26T12:04:02.964Z,101846.31
2023-02-26T12:06:31.313Z,101855.84
2023-02-26T12:09:00.150Z,101868.69
2023-02-26T12:11:52.615Z,101870.25
2023-02-26T12:14:37.933Z,101871.38
2023-02-26T12:17:20.250Z,101876.53
2023-02-26T12:19:55.777Z,101869.19
2023-02-26T12:22:38.850Z,101866.31
2023-02-26T12:25:23.944Z,101858.97
2023-02-26T12:28:10.460Z,101865.25
2023-02-26T12:31:02.584Z,101849.16
2023-02-26T12:33:44.808Z,101856.47
2023-02-26T12:36:28.299Z,101869.56
2023-02-26T12:39:14.047Z,101876.00
2023-02-26T12:41:56.597Z,101870.91
2023-02-26T12:44:40.246Z,101871.41
2023-02-26T12:47:27.601Z,101887.22
2023-02-26T12:50:08.450Z,101884.44
2023-02-26T12:52:58.145Z,101885.22
2023-02-26T12:55:37.130Z,101897.91
2023-02-26T12:58:46.457Z,101888.25
2023-02-26T13:01:28.661Z,101895.94
2023-02-26T13:04:16.147Z,101894.72
2023-02-26T13:06:59.514Z,101887.31
2023-02-26T13:09:36.022Z,101878.78
2023-02-26T13:12:18.102Z,101896.84
2023-02-26T13:14:53.751Z,101904.91
2023-02-26T13:17:37.561Z,101900.63
2023-02-26T13:20:14.821Z,101914.25
2023-02-26T13:22:48.242Z,101916.81
2023-02-26T13:25:26.378Z,101924.00
2023-02-26T13:27:56.828Z,101919.66
2023-02-26T13:30:29.803Z,101918.78
2023-02-26T13:32:59.868Z,101919.41
2023-02-26T13:35:32.242Z,101913.34
2023-02-26T13:38:02.775Z,101922.22
2023-02-26T13:40:54.632Z,101919.50
2023-02-26T13:44:02.342Z,101917.41
2023-02-26T13:46:54.014Z,101909.09
2023-02-26T13:49:31.445Z,101907.47
2023-02-26T13:51:59.462Z,101923.09
2023-02-26T13:54:36.312Z,101916.97
2023-02-26T13:57:18.843Z,101917.19
2023-02-26T13:59:55.393Z,101913.69
2023-02-26T14:02:44.869Z,101915.72
2023-02-26T14:05:52.573Z,101933.25
2023-02-26T14:08:45.019Z,101933.38
2023-02-26T14:11:40.125Z,101929.66
2023-02-26T14:14:15.304Z,101933.72
2023-02-26T14:16:45.616Z,101938.88
2023-02-26T14:19:24.213Z,101937.16
2023-02-26T14:21:53.576Z,101936.22
2023-02-26T14:24:25.449Z,101944.78
2023-02-26T14:27:10.204Z,101936.50
2023-02-26T14:29:42.434Z,101942.63
2023-02-26T14:32:28.247Z,101933.41
2023-02-26T14:35:00.063Z,101935.03
2023-02-26T14:37:29.512Z,101940.28
2023-02-26T14:40:00.549Z,101949.22
2023-02-26T14:42:35.702Z,101940.22
2023-02-26T14:45:15.627Z,101959.69
2023-02-26T14:47:44.390Z,101963.47
2023-02-26T14:50:16.383Z,101964.94
2023-02-26T14:53:03.796Z,101956.97
2023-02-26T14:56:00.439Z,101971.78
2023-02-26T14:58:44.244Z,101974.66
2023-02-26T15:01:28.085Z,101987.22
2023-02-26T15:04:14.942Z,101976.41
2023-02-26T15:06:59.925Z,101991.59
2023-02-26T15:09:40.525Z,101990.75
2023-02-26T15:12:21.877Z,101986.34
2023-02-26T15:15:05.232Z,101987.44
2023-02-26T15:17:57.041Z,101983.97
2023-02-26T15:20:33.965Z,101982.28
2023-02-26T15:23:36.763Z,101983.16
2023-02-26T15:26:14.062Z,101973.41
2023-02-26T15:28:46.506Z,101976.75
2023-02-26T15:31:15.074Z,101986.44
2023-02-26T15:33:45.504Z,101984.44
2023-02-26T15:36:19.137Z,101979.13
2023-02-26T15:38:55.358Z,101980.31
2023-02-26T15:41:24.530Z,101988.75
2023-02-26T15:44:00.498Z,101999.13
2023-02-26T15:46:34.899Z,101993.28
2023-02-26T15:49:10.832Z,101997.66
2023-02-26T15:51:39.270Z,102003.22
2023-02-26T15:54:08.060Z,101999.13
2023-02-26T15:56:41.398Z,101996.59
2023-02-26T15:59:17.415Z,101998.88
2023-02-26T16:01:45.979Z,102012.00
2023-02-26T16:04:17.790Z,102009.75
2023-02-26T16:06:48.414Z,102012.59
2023-02-26T16:09:19.118Z,102011.72
2023-02-26T16:11:49.124Z,102011.03
2023-02-26T16:14:20.263Z,102009.22
2023-02-26T16:16:52.623Z,102014.97
2023-02-26T16:19:32.858Z,102014.09
2023-02-26T16:22:04.465Z,102018.13
2023-02-26T16:24:34.423Z,102022.41
2023-02-26T16:27:07.588Z,102028.28
2023-02-26T16:29:38.185Z,102025.22
2023-02-26T16:32:11.085Z,102029.09
2023-02-26T16:34:51.620Z,102038.66
2023-02-26T16:37:30.663Z,102040.50
2023-02-26T16:40:05.965Z,102044.16
2023-02-26T16:42:44.692Z,102055.63
2023-02-26T16:45:41.052Z,102055.88
2023-02-26T16:48:15.813Z,102053.78
2023-02-26T16:50:45.592Z,102057.47
2023-02-26T16:53:18.228Z,102065.91
2023-02-26T16:55:51.943Z,102082.44
2023-02-26T16:58:21.978Z,102075.31
2023-02-26T17:00:58.110Z,102083.47
2023-02-26T17:03:28.002Z,102081.63
2023-02-26T17:06:01.823Z,102086.56
2023-02-26T17:08:34.511Z,102091.00
2023-02-26T17:11:04.264Z,102092.25
2023-02-26T17:13:36.893Z,102102.75
2023-02-26T17:16:11.211Z,102105.03
2023-02-26T17:18:39.518Z,102111.66
2023-02-26T17:21:10.225Z,102109.69
2023-02-26T17:23:39.691Z,102111.22
2023-02-26T17:26:07.831Z,102116.97
2023-02-26T17:28:40.918Z,102112.59
2023-02-26T17:31:09.451Z,102123.28
2023-02-26T17:33:39.333Z,102128.66
2023-02-26T17:36:14.653Z,102134.47
2023-02-26T17:38:47.008Z,102133.34
2023-02-26T17:41:18.580Z,102130.13
2023-02-26T17:43:46.446Z,102140.28
2023-02-26T17:46:14.589Z,102137.31
2023-02-26T17:48:42.551Z,102146.75
2023-02-26T17:51:15.830Z,102141.69
2023-02-26T17:53:46.411Z,102149.00
2023-02-26T17:56:25.220Z,102148.19
2023-02-26T17:58:55.209Z,102151.53
2023-02-26T18:01:24.548Z,102160.56
2023-02-26T18:03:54.588Z,102159.34
2023-02-26T18:06:25.132Z,102161.59
2023-02-26T18:08:54.154Z,102162.22
2023-02-26T18:11:25.896Z,102163.13
2023-02-26T18:13:55.254Z,102168.13
2023-02-26T18:16:28.676Z,102162.34
2023-02-26T18:18:56.544Z,102181.84
2023-02-26T18:21:27.300Z,102174.91
2023-02-26T18:23:57.574Z,102179.44
2023-02-26T18:26:27.779Z,102175.53
2023-02-26T18:28:56.651Z,102183.78
2023-02-26T18:31:33.320Z,102180.16
2023-02-26T18:34:02.422Z,102181.69
2023-02-26T18:36:37.654Z,102182.16
2023-02-26T18:39:07.815Z,102185.94
2023-02-26T18:41:36.089Z,102190.25
2023-02-26T18:44:04.328Z,102184.69
2023-02-26T18:46:34.861Z,102191.25
2023-02-26T18:49:02.831Z,102189.75
2023-02-26T18:51:32.599Z,102205.91
2023-02-26T18:54:00.487Z,102202.81
2023-02-26T18:56:28.616Z,102212.53
2023-02-26T18:58:56.481Z,102220.81
2023-02-26T19:01:24.633Z,102228.34
2023-02-26T19:03:52.589Z,102228.19
2023-02-26T19:06:20.527Z,102231.78
2023-02-26T19:08:50.001Z,102234.78
2023-02-26T19:11:18.002Z,102232.00
2023-02-26T19:13:47.171Z,102233.72
2023-02-26T19:16:15.211Z,102242.84
2023-02-26T19:18:43.104Z,102248.31
2023-02-26T19:21:10.970Z,102248.31
2023-02-26T19:23:38.870Z,102245.50
2023-02-26T19:26:09.104Z,102248.41
2023-02-26T19:28:37.197Z,102251.63
2023-02-26T19:31:06.132Z,102253.22
2023-02-26T19:33:34.343Z,102252.38
2023-02-26T19:36:03.759Z,102246.09
2023-02-26T19:38:31.906Z,102251.09
2023-02-26T19:41:00.628Z,102254.66
2023-02-26T19:43:29.970Z,102262.22
2023-02-26T19:45:57.850Z,102262.38
2023-02-26T19:48:27.297Z,102265.56
2023-02-26T19:50:56.313Z,102256.00
2023-02-26T19:53:24.237Z,102265.88
2023-02-26T19:55:52.113Z,102261.63
2023-02-26T19:58:20.633Z,102264.13
2023-02-26T20:00:49.905Z,102267.53
2023-02-26T20:03:17.788Z,102273.50
2023-02-26T20:05:45.716Z,102276.03
2023-02-26T20:08:13.601Z,102276.00
2023-02-26T20:10:44.335Z,102282.28
2023-02-26T20:13:13.087Z,102279.81
2023-02-26T20:15:41.577Z,102288.47
2023-02-26T20:18:11.317Z,102292.91
2023-02-26T20:20:39.206Z,102297.59
2023-02-26T20:23:07.102Z,102298.88
2023-02-26T20:25:35.317Z,102304.00
2023-02-26T20:28:03.438Z,102306.94
2023-02-26T20:30:32.762Z,102302.34
2023-02-26T20:33:00.723Z,102310.50
2023-02-26T20:35:30.110Z,102308.69
2023-02-26T20:37:58.111Z,102311.41
2023-02-26T20:40:25.969Z,102318.22
2023-02-26T20:42:53.891Z,102319.09
2023-02-26T20:45:21.828Z,102316.56
2023-02-26T20:47:49.705Z,102328.88
2023-02-26T20:50:18.042Z,102314.78
2023-02-26T20:52:47.280Z,102316.69
2023-02-26T20:55:15.159Z,102325.91
2023-02-26T20:57:43.082Z,102321.63
2023-02-26T21:00:15.402Z,102333.97
2023-02-26T21:02:44.344Z,102335.81
2023-02-26T21:05:13.310Z,102339.38
2023-02-26T21:07:41.520Z,102339.50
2023-02-26T21:10:13.421Z,102341.47
2023-02-26T21:12:41.455Z,102341.09
2023-02-26T21:15:11.119Z,102338.31
2023-02-26T21:17:40.289Z,102342.22
2023-02-26T21:20:10.313Z,102343.41
2023-02-26T21:22:38.232Z,102347.78
2023-02-26T21:25:08.592Z,102347.59
2023-02-26T21:27:37.900Z,102351.38
2023-02-26T21:30:07.260Z,102354.09
2023-02-26T21:32:35.497Z,102356.34
2023-02-26T21:35:03.431Z,102358.72
2023-02-26T21:37:31.295Z,102365.53
2023-02-26T21:39:59.298Z,102368.06
2023-02-26T21:42:27.197Z,102367.22
2023-02-26T21:44:56.461Z,102374.47
2023-02-26T21:47:24.336Z,102373.88
2023-02-26T21:49:52.183Z,102364.41
2023-02-26T21:52:20.181Z,102378.50
2023-02-26T21:54:48.141Z,102374.50
2023-02-26T21:57:16.103Z,102378.19
2023-02-26T21:59:43.958Z,102383.53
2023-02-26T22:02:13.646Z,102373.81
2023-02-26T22:04:42.119Z,102381.75
2023-02-26T22:07:10.025Z,102381.78
2023-02-26T22:09:38.176Z,102376.59
2023-02-26T22:12:07.016Z,102380.13
2023-02-26T22:14:34.917Z,102375.94
2023-02-26T22:17:02.833Z,102375.06
2023-02-26T22:19:32.081Z,102381.16
2023-02-26T22:21:59.974Z,102386.63
2023-02-26T22:24:28.012Z,102383.97
2023-02-26T22:26:55.942Z,102397.16
2023-02-26T22:29:24.671Z,102395.38
2023-02-26T22:31:53.975Z,102403.63
2023-02-26T22:34:21.948Z,102401.94
2023-02-26T22:36:52.208Z,102401.94
2023-02-26T22:39:20.286Z,102416.72
2023-02-26T22:41:48.359Z,102408.84
2023-02-26T22:44:16.297Z,102418.66
2023-02-26T22:46:44.566Z,102416.03
2023-02-26T22:49:12.851Z,102416.16
2023-02-26T22:51:40.753Z,102413.47
2023-02-26T22:54:12.030Z,102423.88
2023-02-26T22:56:39.963Z,102415.94
2023-02-26T22:59:07.799Z,102425.56
2023-02-26T23:01:35.741Z,102426.41
2023-02-26T23:04:03.696Z,102429.81
2023-02-26T23:06:31.741Z,102428.06
2023-02-26T23:08:59.599Z,102433.41
2023-02-26T23:11:29.263Z,102437.94
2023-02-26T23:13:57.332Z,102439.53
2023-02-26T23:16:25.548Z,102430.84
2023-02-26T23:18:53.487Z,102434.94
2023-02-26T23:21:21.459Z,102435.94
2023-02-26T23:23:49.571Z,102429.78
2023-02-26T23:26:18.334Z,102432.56
2023-02-26T23:28:47.604Z,102433.50
2023-02-26T23:31:15.721Z,102433.44
2023-02-26T23:33:43.690Z,102436.16
2023-02-26T23:36:11.922Z,102434.38
2023-02-26T23:38:39.970Z,102433.56
2023-02-26T23:41:07.877Z,102434.53
2023-02-26T23:43:36.220Z,102438.06
2023-02-26T23:46:05.903Z,102440.03
2023-02-26T23:48:34.017Z,102442.72
2023-02-26T23:51:01.930Z,102443.63
2023-02-26T23:53:29.860Z,102443.72
2023-02-26T23:55:58.937Z,102436.59
2023-02-26T23:58:27.638Z,102441.06
